createdAt,value
2019-03-23T00:02:05.406Z,3.50
2019-03-23T00:04:42.870Z,3.50
2019-03-23T00:07:16.060Z,3.40
2019-03-23T00:09:47.591Z,3.40
2019-03-23T00:15:06.261Z,3.50
2019-03-23T00:17:36.477Z,3.40
2019-03-23T00:20:15.818Z,3.30
2019-03-23T00:22:49.244Z,3.20
2019-03-23T00:25:19.233Z,3.20
2019-03-23T00:28:01.639Z,3.20
2019-03-23T00:30:35.243Z,3.10
2019-03-23T00:33:17.823Z,3.10
2019-03-23T00:35:53.912Z,3.20
2019-03-23T00:38:43.632Z,3.20
2019-03-23T01:01:58.168Z,2.70
2019-03-23T01:04:27.971Z,2.70
2019-03-23T01:06:57.866Z,2.70
2019-03-23T01:09:28.884Z,2.70
2019-03-23T01:11:58.714Z,2.60
2019-03-23T01:14:28.877Z,2.60
2019-03-23T01:16:58.854Z,2.50
2019-03-23T01:19:28.673Z,2.50
2019-03-23T01:21:58.390Z,2.40
2019-03-23T01:24:28.220Z,2.40
2019-03-23T01:26:58.037Z,2.40
2019-03-23T01:29:28.720Z,2.30
2019-03-23T01:32:08.118Z,2.30
2019-03-23T01:34:41.032Z,2.30
2019-03-23T01:37:10.917Z,2.30
2019-03-23T01:39:40.743Z,2.30
2019-03-23T01:42:10.543Z,2.40
2019-03-23T01:44:40.584Z,2.50
2019-03-23T01:47:10.725Z,2.40
2019-03-23T01:49:40.893Z,2.30
2019-03-23T02:00:00.016Z,2.10
2019-03-23T02:02:48.607Z,2.10
2019-03-23T02:05:22.376Z,2.10
2019-03-23T02:08:01.401Z,2.00
2019-03-23T02:10:52.005Z,2.00
2019-03-23T02:13:22.326Z,1.90
2019-03-23T02:15:55.721Z,1.90
2019-03-23T02:18:25.739Z,1.90
2019-03-23T02:20:56.135Z,1.90
2019-03-23T02:23:26.394Z,1.90
2019-03-23T02:25:56.506Z,1.80
2019-03-23T02:28:55.094Z,1.80
2019-03-23T02:31:28.293Z,1.80
2019-03-23T02:34:15.910Z,1.70
2019-03-23T02:36:45.776Z,1.70
2019-03-23T02:39:15.548Z,1.70
2019-03-23T02:41:45.408Z,1.80
2019-03-23T02:44:16.340Z,1.60
2019-03-23T02:46:49.660Z,1.60
2019-03-23T02:49:37.904Z,1.60
2019-03-23T02:52:17.627Z,1.60
2019-03-23T02:54:48.293Z,1.60
2019-03-23T02:57:25.019Z,1.50
2019-03-23T02:59:55.274Z,1.30
2019-03-23T03:02:25.300Z,1.40
2019-03-23T03:04:58.720Z,1.40
2019-03-23T03:07:40.970Z,1.30
2019-03-23T03:10:00.773Z,1.30
2019-03-23T03:13:07.113Z,1.30
2019-03-23T03:15:40.111Z,1.30
2019-03-23T03:18:11.671Z,1.50
2019-03-23T03:20:41.920Z,1.40
2019-03-23T03:23:12.155Z,1.40
2019-03-23T03:25:42.553Z,1.40
2019-03-23T03:28:16.057Z,1.30
2019-03-23T03:30:49.594Z,1.30
2019-03-23T03:36:16.292Z,1.40
2019-03-23T03:42:09.798Z,1.30
2019-03-23T03:44:42.819Z,1.30
2019-03-23T03:47:12.895Z,1.30
2019-03-23T03:49:42.732Z,1.30
2019-03-23T03:52:12.627Z,1.30
2019-03-23T03:54:42.736Z,1.30
2019-03-23T03:57:12.592Z,1.30
2019-03-23T03:59:42.712Z,1.20
2019-03-23T04:02:12.768Z,1.20
2019-03-23T04:05:01.804Z,1.20
2019-03-23T04:07:31.659Z,1.10
2019-03-23T04:10:01.378Z,1.10
2019-03-23T04:12:31.254Z,1.00
2019-03-23T04:15:01.239Z,1.00
2019-03-23T04:17:31.049Z,1.10
2019-03-23T04:20:01.131Z,1.10
2019-03-23T04:22:30.970Z,1.00
2019-03-23T04:25:01.005Z,1.00
2019-03-23T04:27:30.910Z,1.00
2019-03-23T04:30:00.805Z,1.00
2019-03-23T04:32:30.788Z,1.00
2019-03-23T04:35:00.598Z,0.90
2019-03-23T04:37:30.557Z,1.00
2019-03-23T04:40:00.532Z,0.90
2019-03-23T04:42:30.556Z,0.90
2019-03-23T04:45:00.408Z,0.80
2019-03-23T04:47:30.943Z,0.80
2019-03-23T04:50:08.319Z,0.80
2019-03-23T04:52:42.123Z,0.80
2019-03-23T04:56:06.545Z,0.70
2019-03-23T04:58:58.960Z,0.70
2019-03-23T05:01:29.208Z,0.70
2019-03-23T05:03:59.727Z,0.70
2019-03-23T05:06:30.266Z,0.70
2019-03-23T05:09:05.505Z,0.60
2019-03-23T05:11:36.117Z,0.60
2019-03-23T05:14:06.230Z,0.60
2019-03-23T05:16:36.594Z,0.60
2019-03-23T05:19:07.110Z,0.60
2019-03-23T05:21:37.844Z,0.60
2019-03-23T05:24:08.168Z,0.60
2019-03-23T05:26:38.560Z,0.60
2019-03-23T05:29:09.300Z,0.70
2019-03-23T05:31:39.587Z,0.70
2019-03-23T05:34:09.989Z,0.70
2019-03-23T05:36:43.379Z,0.70
2019-03-23T05:39:13.773Z,0.80
2019-03-23T05:41:44.265Z,0.80
2019-03-23T05:44:14.626Z,0.80
2019-03-23T05:46:44.711Z,0.80
2019-03-23T05:49:15.158Z,0.70
2019-03-23T05:51:54.306Z,0.70
2019-03-23T05:54:24.831Z,0.70
2019-03-23T05:56:55.598Z,0.80
2019-03-23T05:59:26.179Z,0.80
2019-03-23T06:02:02.534Z,0.90
2019-03-23T06:05:09.266Z,1.00
2019-03-23T06:07:42.459Z,1.10
2019-03-23T06:10:12.784Z,1.10
2019-03-23T06:12:44.238Z,1.10
2019-03-23T06:15:14.596Z,1.20
2019-03-23T06:17:45.133Z,1.20
2019-03-23T06:20:18.488Z,1.30
2019-03-23T06:22:48.842Z,1.40
2019-03-23T06:27:48.509Z,1.60
2019-03-23T06:30:20.292Z,1.80
2019-03-23T06:32:50.822Z,1.90
2019-03-23T06:35:27.678Z,1.90
2019-03-23T06:38:06.216Z,2.00
2019-03-23T06:52:23.315Z,2.80
2019-03-23T06:54:56.914Z,3.30
2019-03-23T06:57:27.649Z,3.80
2019-03-23T06:59:57.735Z,4.20
2019-03-23T07:02:33.455Z,4.70
2019-03-23T07:05:04.429Z,5.20
2019-03-23T07:07:35.997Z,5.70
2019-03-23T07:10:07.918Z,6.50
2019-03-23T07:12:41.572Z,7.50
2019-03-23T07:15:20.072Z,8.80
2019-03-23T07:17:44.856Z,9.60
2019-03-23T07:20:18.432Z,10.30
2019-03-23T07:22:49.165Z,10.90
2019-03-23T07:25:19.439Z,11.40
2019-03-23T07:27:56.215Z,11.50
2019-03-23T07:30:26.642Z,12.00
2019-03-23T07:32:57.607Z,12.20
2019-03-23T07:35:37.303Z,13.10
2019-03-23T07:38:08.165Z,13.80
2019-03-23T07:40:43.858Z,14.10
2019-03-23T07:43:14.288Z,15.20
2019-03-23T07:45:44.972Z,16.40
2019-03-23T07:48:15.372Z,17.30
2019-03-23T07:50:45.780Z,17.50
2019-03-23T07:53:17.577Z,16.20
2019-03-23T07:55:47.972Z,17.70
2019-03-23T07:58:18.432Z,19.00
2019-03-23T08:00:48.602Z,20.00
2019-03-23T08:03:27.994Z,20.30
2019-03-23T08:05:58.014Z,20.10
2019-03-23T08:08:28.337Z,20.90
2019-03-23T08:10:58.519Z,18.90
2019-03-23T08:13:29.072Z,20.40
2019-03-23T08:15:59.248Z,22.20
2019-03-23T08:18:29.428Z,23.60
2019-03-23T08:20:59.841Z,21.80
2019-03-23T08:23:30.345Z,23.40
2019-03-23T08:26:01.628Z,24.30
2019-03-23T08:28:32.535Z,24.80
2019-03-23T08:31:02.738Z,24.70
2019-03-23T08:33:32.961Z,25.30
2019-03-23T08:36:04.566Z,25.80
2019-03-23T08:38:34.659Z,25.50
2019-03-23T08:41:04.584Z,26.20
2019-03-23T08:43:34.581Z,25.90
2019-03-23T08:46:06.848Z,25.80
2019-03-23T08:48:36.898Z,24.50
2019-03-23T08:51:06.755Z,26.50
2019-03-23T08:53:36.849Z,27.70
2019-03-23T08:56:06.891Z,27.70
2019-03-23T08:58:34.821Z,27.60
2019-03-23T09:01:04.838Z,27.90
2019-03-23T09:03:34.798Z,27.00
2019-03-23T09:06:04.657Z,27.10
2019-03-23T09:08:34.468Z,27.40
2019-03-23T09:11:04.305Z,27.90
2019-03-23T09:13:40.670Z,28.50
2019-03-23T09:16:06.050Z,28.50
2019-03-23T09:18:35.997Z,28.50
2019-03-23T09:21:05.936Z,28.80
2019-03-23T09:23:36.158Z,28.80
2019-03-23T09:26:06.236Z,29.20
2019-03-23T09:28:36.274Z,28.80
2019-03-23T09:31:06.272Z,28.40
2019-03-23T09:33:36.248Z,28.60
2019-03-23T09:36:06.160Z,28.50
2019-03-23T09:38:36.016Z,28.60
2019-03-23T09:41:05.899Z,28.90
2019-03-23T09:43:35.948Z,27.60
2019-03-23T09:46:05.974Z,27.60
2019-03-23T09:48:36.127Z,29.00
2019-03-23T09:51:06.244Z,29.00
2019-03-23T09:53:36.193Z,29.10
2019-03-23T09:56:05.965Z,29.10
2019-03-23T09:58:36.003Z,29.10
2019-03-23T10:01:05.795Z,29.50
2019-03-23T10:03:35.579Z,29.40
2019-03-23T10:06:06.056Z,29.60
2019-03-23T10:08:35.942Z,29.40
2019-03-23T10:11:05.743Z,29.50
2019-03-23T10:13:35.636Z,28.90
2019-03-23T10:16:05.904Z,28.80
2019-03-23T10:18:36.104Z,28.70
2019-03-23T10:21:05.999Z,29.00
2019-03-23T10:23:36.057Z,29.20
2019-03-23T10:26:06.035Z,29.40
2019-03-23T10:28:36.095Z,28.10
2019-03-23T10:31:05.966Z,28.60
2019-03-23T10:33:35.923Z,29.10
2019-03-23T10:36:05.874Z,28.90
2019-03-23T10:38:35.823Z,28.60
2019-03-23T10:41:05.597Z,28.30
2019-03-23T10:43:35.679Z,28.10
2019-03-23T10:46:05.761Z,28.30
2019-03-23T10:48:36.085Z,28.00
2019-03-23T10:51:05.984Z,28.00
2019-03-23T10:53:35.845Z,28.10
2019-03-23T10:56:09.969Z,28.20
2019-03-23T10:58:43.137Z,27.60
2019-03-23T11:01:16.162Z,27.60
2019-03-23T11:03:46.268Z,27.40
2019-03-23T11:06:16.445Z,26.80
2019-03-23T11:08:46.564Z,27.40
2019-03-23T11:11:16.891Z,27.80
2019-03-23T11:13:47.315Z,27.20
2019-03-23T11:16:17.437Z,27.10
2019-03-23T11:18:48.884Z,27.70
2019-03-23T11:21:19.007Z,28.00
2019-03-23T11:23:49.328Z,28.10
2019-03-23T11:26:19.403Z,28.60
2019-03-23T11:28:49.672Z,27.90
2019-03-23T11:31:19.787Z,28.30
2019-03-23T11:33:49.603Z,27.90
2019-03-23T11:36:19.721Z,27.90
2019-03-23T11:38:50.884Z,28.20
2019-03-23T11:41:20.984Z,28.20
2019-03-23T11:43:50.756Z,28.20
2019-03-23T11:46:20.497Z,28.10
2019-03-23T11:48:50.279Z,28.40
2019-03-23T11:51:20.069Z,28.20
2019-03-23T11:54:02.858Z,28.00
2019-03-23T11:56:33.132Z,27.70
2019-03-23T11:59:03.086Z,28.30
2019-03-23T12:01:32.871Z,28.20
2019-03-23T12:04:02.676Z,27.30
2019-03-23T12:06:32.411Z,27.30
2019-03-23T12:09:02.154Z,27.80
2019-03-23T12:11:32.049Z,28.30
2019-03-23T12:14:01.779Z,28.40
2019-03-23T12:16:31.541Z,28.50
2019-03-23T12:19:01.605Z,28.10
2019-03-23T12:21:31.554Z,28.50
2019-03-23T12:24:01.885Z,28.40
2019-03-23T12:26:31.636Z,27.60
2019-03-23T12:29:01.378Z,28.50
2019-03-23T12:31:31.375Z,28.00
2019-03-23T12:34:03.936Z,28.20
2019-03-23T12:36:33.712Z,27.80
2019-03-23T12:39:05.203Z,27.70
2019-03-23T12:41:35.092Z,27.60
2019-03-23T12:44:04.946Z,28.30
2019-03-23T12:46:34.662Z,28.50
2019-03-23T12:49:04.427Z,28.60
2019-03-23T12:51:37.953Z,28.30
2019-03-23T12:54:07.745Z,28.10
2019-03-23T12:56:38.745Z,28.20
2019-03-23T12:59:08.532Z,28.30
2019-03-23T13:01:38.425Z,28.70
2019-03-23T13:04:08.940Z,28.80
2019-03-23T13:06:39.049Z,28.50
2019-03-23T13:09:10.261Z,27.50
2019-03-23T13:11:40.583Z,27.10
2019-03-23T13:14:10.517Z,27.20
2019-03-23T13:16:40.596Z,27.20
2019-03-23T13:19:10.574Z,27.40
2019-03-23T13:21:40.601Z,27.00
2019-03-23T13:24:12.883Z,27.40
2019-03-23T13:26:42.691Z,27.30
2019-03-23T13:29:13.286Z,27.50
2019-03-23T13:31:43.041Z,27.60
2019-03-23T13:34:13.239Z,27.80
2019-03-23T13:36:43.311Z,27.60
2019-03-23T13:39:13.213Z,28.00
2019-03-23T13:41:51.066Z,28.20
2019-03-23T13:44:21.415Z,28.20
2019-03-23T13:46:53.547Z,28.00
2019-03-23T13:49:23.755Z,28.20
2019-03-23T13:51:54.339Z,28.10
2019-03-23T13:54:24.440Z,28.10
2019-03-23T13:56:54.561Z,27.80
2019-03-23T13:59:24.717Z,27.70
2019-03-23T14:01:54.689Z,27.60
2019-03-23T14:04:25.253Z,27.50
2019-03-23T14:06:57.252Z,27.50
2019-03-23T14:09:27.069Z,26.60
2019-03-23T14:11:56.930Z,26.90
2019-03-23T14:14:26.740Z,26.60
2019-03-23T14:16:56.701Z,27.20
2019-03-23T14:19:26.914Z,27.30
2019-03-23T14:21:56.590Z,27.10
2019-03-23T14:24:26.328Z,26.50
2019-03-23T14:26:56.044Z,26.40
2019-03-23T14:29:31.322Z,26.70
2019-03-23T14:32:01.181Z,26.30
2019-03-23T14:34:31.101Z,26.20
2019-03-23T14:37:01.044Z,26.20
2019-03-23T14:39:31.220Z,26.40
2019-03-23T14:42:05.176Z,26.50
2019-03-23T14:44:33.229Z,26.60
2019-03-23T14:47:22.174Z,26.70
2019-03-23T14:49:52.067Z,26.80
2019-03-23T14:52:22.494Z,26.30
2019-03-23T14:54:54.031Z,25.80
2019-03-23T14:57:23.962Z,25.40
2019-03-23T14:59:54.102Z,25.40
2019-03-23T15:02:24.319Z,25.00
2019-03-23T15:04:54.131Z,25.30
2019-03-23T15:07:24.272Z,25.30
2019-03-23T15:09:54.373Z,25.50
2019-03-23T15:12:25.400Z,25.40
2019-03-23T15:14:55.589Z,25.20
2019-03-23T15:17:25.570Z,25.30
2019-03-23T15:19:56.085Z,25.10
2019-03-23T15:22:45.964Z,25.10
2019-03-23T15:25:18.139Z,25.20
2019-03-23T15:27:48.029Z,25.30
2019-03-23T15:30:18.074Z,25.30
2019-03-23T15:32:48.262Z,25.10
2019-03-23T15:35:27.163Z,24.90
2019-03-23T15:37:56.927Z,24.90
2019-03-23T15:40:26.683Z,24.80
2019-03-23T15:42:56.579Z,24.50
2019-03-23T15:45:26.461Z,24.10
2019-03-23T15:47:56.446Z,23.90
2019-03-23T15:50:26.500Z,24.00
2019-03-23T15:52:58.386Z,24.10
2019-03-23T15:55:31.399Z,24.00
2019-03-23T15:58:03.857Z,24.10
2019-03-23T16:00:36.791Z,23.90
2019-03-23T16:03:07.335Z,23.80
2019-03-23T16:05:41.509Z,23.80
2019-03-23T16:08:20.719Z,23.50
2019-03-23T16:10:50.653Z,23.40
2019-03-23T16:13:20.455Z,23.10
2019-03-23T16:16:59.716Z,23.20
2019-03-23T16:22:57.539Z,22.70
2019-03-23T16:25:29.908Z,22.50
2019-03-23T16:33:04.932Z,21.50
2019-03-23T16:35:35.592Z,21.20
2019-03-23T16:38:06.221Z,20.90
2019-03-23T16:40:42.794Z,20.70
2019-03-23T16:43:21.797Z,20.50
2019-03-23T16:45:55.319Z,20.30
2019-03-23T16:48:33.015Z,20.00
2019-03-23T16:51:13.423Z,19.80
2019-03-23T16:53:43.945Z,19.50
2019-03-23T16:56:17.518Z,19.50
2019-03-23T16:58:48.385Z,19.30
2019-03-23T17:01:19.177Z,19.10
2019-03-23T17:03:57.031Z,19.00
2019-03-23T17:06:46.318Z,18.90
2019-03-23T17:13:08.450Z,18.50
2019-03-23T17:15:39.112Z,18.30
2019-03-23T17:18:19.193Z,18.10
2019-03-23T17:21:11.261Z,17.90
2019-03-23T17:23:51.293Z,17.60
2019-03-23T17:26:23.854Z,17.40
2019-03-23T17:28:54.083Z,17.30
2019-03-23T17:31:24.435Z,17.20
2019-03-23T17:40:52.929Z,16.70
2019-03-23T17:47:18.264Z,16.30
2019-03-23T17:49:52.488Z,16.20
2019-03-23T17:52:24.749Z,16.00
2019-03-23T17:54:54.781Z,15.90
2019-03-23T17:57:26.417Z,15.70
2019-03-23T17:59:56.417Z,15.50
2019-03-23T18:02:26.498Z,15.30
2019-03-23T18:04:56.338Z,15.20
2019-03-23T18:07:26.594Z,15.10
2019-03-23T18:09:56.923Z,15.00
2019-03-23T18:12:35.687Z,14.80
2019-03-23T18:15:05.986Z,14.70
2019-03-23T18:17:35.983Z,14.60
2019-03-23T18:20:06.202Z,14.50
2019-03-23T18:22:36.159Z,14.50
2019-03-23T18:25:06.231Z,14.30
2019-03-23T18:27:36.054Z,14.20
2019-03-23T18:30:06.985Z,14.10
2019-03-23T18:32:37.068Z,14.00
2019-03-23T18:35:15.247Z,13.80
2019-03-23T18:37:41.338Z,13.80
2019-03-23T18:40:11.708Z,13.60
2019-03-23T18:42:41.442Z,13.60
2019-03-23T18:45:11.256Z,13.50
2019-03-23T18:47:41.032Z,13.40
2019-03-23T18:50:10.992Z,13.30
2019-03-23T18:52:40.989Z,13.20
2019-03-23T18:55:10.747Z,13.00
2019-03-23T18:57:40.825Z,12.80
2019-03-23T19:00:13.240Z,12.70
2019-03-23T19:02:42.697Z,12.60
2019-03-23T19:05:12.573Z,12.50
2019-03-23T19:07:49.731Z,12.40
2019-03-23T19:10:22.838Z,12.30
2019-03-23T19:12:53.489Z,12.30
2019-03-23T19:15:23.949Z,12.10
2019-03-23T19:17:53.725Z,12.00
2019-03-23T19:20:23.910Z,11.90
2019-03-23T19:22:53.660Z,11.90
2019-03-23T19:25:23.364Z,11.80
2019-03-23T19:27:53.126Z,11.70
2019-03-23T19:30:23.369Z,11.60
2019-03-23T19:32:53.174Z,11.50
2019-03-23T19:35:22.984Z,11.40
2019-03-23T19:37:52.797Z,11.40
2019-03-23T19:40:22.512Z,11.40
2019-03-23T19:42:52.401Z,11.30
2019-03-23T19:45:22.171Z,11.20
2019-03-23T19:47:52.144Z,11.10
2019-03-23T19:50:21.900Z,11.00
2019-03-23T19:52:51.988Z,10.90
2019-03-23T19:55:21.787Z,10.80
2019-03-23T19:57:54.567Z,10.70
2019-03-23T20:00:23.651Z,10.60
2019-03-23T20:02:53.738Z,10.50
2019-03-23T20:05:24.764Z,10.40
2019-03-23T20:07:55.038Z,10.30
2019-03-23T20:10:25.455Z,10.20
2019-03-23T20:12:55.409Z,10.20
2019-03-23T20:15:25.291Z,10.10
2019-03-23T20:17:55.081Z,10.00
2019-03-23T20:20:25.051Z,9.90
2019-03-23T20:22:54.973Z,9.90
2019-03-23T20:25:24.834Z,9.80
2019-03-23T20:27:55.401Z,9.80
2019-03-23T20:30:25.211Z,9.70
2019-03-23T20:32:55.079Z,9.60
2019-03-23T20:35:25.217Z,9.50
2019-03-23T20:37:55.205Z,9.40
2019-03-23T20:40:25.479Z,9.30
2019-03-23T20:42:55.398Z,9.30
2019-03-23T20:45:31.595Z,9.20
2019-03-23T20:48:01.509Z,9.20
2019-03-23T20:50:31.329Z,9.10
2019-03-23T20:53:01.095Z,9.00
2019-03-23T20:55:31.517Z,9.00
2019-03-23T20:58:01.559Z,8.90
2019-03-23T21:00:31.371Z,8.80
2019-03-23T21:03:01.340Z,8.70
2019-03-23T21:05:34.167Z,8.70
2019-03-23T21:08:03.292Z,8.60
2019-03-23T21:10:42.026Z,8.50
2019-03-23T21:13:11.947Z,8.50
2019-03-23T21:15:42.033Z,8.40
2019-03-23T21:18:12.085Z,8.30
2019-03-23T21:20:42.570Z,8.20
2019-03-23T21:23:12.775Z,8.20
2019-03-23T21:25:42.792Z,8.10
2019-03-23T21:28:13.144Z,8.00
2019-03-23T21:30:45.673Z,7.90
2019-03-23T21:33:16.004Z,7.80
2019-03-23T21:35:46.648Z,7.70
2019-03-23T21:38:16.459Z,7.70
2019-03-23T21:41:34.429Z,7.60
2019-03-23T21:45:03.708Z,7.60
2019-03-23T21:47:34.541Z,7.50
2019-03-23T21:50:18.444Z,7.40
2019-03-23T21:52:50.100Z,7.30
2019-03-23T21:55:21.679Z,7.30
2019-03-23T21:58:08.137Z,7.30
2019-03-23T22:00:39.549Z,7.30
2019-03-23T22:03:23.571Z,7.30
2019-03-23T22:05:50.810Z,7.20
2019-03-23T22:08:21.377Z,7.20
2019-03-23T22:10:51.879Z,7.10
2019-03-23T22:13:22.999Z,7.00
2019-03-23T22:15:53.519Z,6.90
2019-03-23T22:18:23.903Z,6.90
2019-03-23T22:23:57.009Z,6.80
2019-03-23T22:27:19.185Z,6.70
2019-03-23T22:30:00.563Z,6.70
2019-03-23T22:32:37.079Z,6.60
2019-03-23T22:35:08.352Z,6.60
2019-03-23T22:37:45.614Z,6.50
2019-03-23T22:40:16.449Z,6.50
2019-03-23T22:42:47.082Z,6.40
2019-03-23T22:45:16.933Z,6.30
2019-03-23T22:47:50.681Z,6.30
2019-03-23T22:50:23.339Z,6.30
2019-03-23T22:53:16.815Z,6.10
2019-03-23T22:55:52.081Z,6.10
2019-03-23T22:58:25.351Z,6.00
2019-03-23T23:00:58.597Z,6.00
2019-03-23T23:03:31.226Z,6.00
2019-03-23T23:06:29.734Z,5.90
2019-03-23T23:09:34.185Z,5.90
2019-03-23T23:12:04.508Z,5.80
2019-03-23T23:14:35.014Z,5.80
2019-03-23T23:17:08.232Z,5.70
2019-03-23T23:22:52.801Z,5.60
2019-03-23T23:25:22.588Z,5.60
2019-03-23T23:27:52.476Z,5.60
2019-03-23T23:30:22.314Z,5.50
2019-03-23T23:32:52.137Z,5.40
2019-03-23T23:35:21.902Z,5.40
2019-03-23T23:38:10.589Z,5.40
2019-03-23T23:40:40.394Z,5.40
2019-03-23T23:43:15.038Z,5.30
2019-03-23T23:45:59.894Z,5.40
2019-03-23T23:48:29.752Z,5.30
2019-03-23T23:50:59.603Z,5.30
2019-03-23T23:53:36.607Z,5.30
2019-03-23T23:56:31.764Z,5.30
2019-03-23T23:59:08.282Z,5.30
